sensor_id;sensor_type;location;lat;lon;timestamp;P1;durP1;ratioP1;P2;durP2;ratioP2
60919;SDS011;59039;52.108;19.942;2022-08-19T00:01:57;20.60;;;14.20;;
60919;SDS011;59039;52.108;19.942;2022-08-19T00:04:26;20.60;;;14.80;;
60919;SDS011;59039;52.108;19.942;2022-08-19T00:06:55;20.10;;;14.60;;
60919;SDS011;59039;52.108;19.942;2022-08-19T00:09:22;23.50;;;15.10;;
60919;SDS011;59039;52.108;19.942;2022-08-19T00:11:48;17.70;;;14.80;;
60919;SDS011;59039;52.108;19.942;2022-08-19T00:14:16;17.10;;;14.00;;
60919;SDS011;59039;52.108;19.942;2022-08-19T00:16:42;17.50;;;13.30;;
60919;SDS011;59039;52.108;19.942;2022-08-19T00:19:12;16.90;;;13.40;;
60919;SDS011;59039;52.108;19.942;2022-08-19T00:21:38;16.30;;;14.30;;
60919;SDS011;59039;52.108;19.942;2022-08-19T00:24:04;18.30;;;15.10;;
60919;SDS011;59039;52.108;19.942;2022-08-19T00:26:33;20.10;;;14.20;;
60919;SDS011;59039;52.108;19.942;2022-08-19T00:31:55;20.40;;;14.60;;
60919;SDS011;59039;52.108;19.942;2022-08-19T00:34:21;20.20;;;15.10;;
60919;SDS011;59039;52.108;19.942;2022-08-19T00:36:47;19.90;;;14.60;;
60919;SDS011;59039;52.108;19.942;2022-08-19T00:39:13;17.50;;;13.80;;
60919;SDS011;59039;52.108;19.942;2022-08-19T00:41:40;20.70;;;14.10;;
60919;SDS011;59039;52.108;19.942;2022-08-19T00:44:09;17.60;;;13.50;;
60919;SDS011;59039;52.108;19.942;2022-08-19T00:46:38;17.20;;;13.80;;
60919;SDS011;59039;52.108;19.942;2022-08-19T00:49:10;19.30;;;13.90;;
60919;SDS011;59039;52.108;19.942;2022-08-19T00:51:39;21.60;;;15.00;;
60919;SDS011;59039;52.108;19.942;2022-08-19T00:54:06;18.80;;;14.40;;
60919;SDS011;59039;52.108;19.942;2022-08-19T00:56:31;18.10;;;14.90;;
60919;SDS011;59039;52.108;19.942;2022-08-19T00:58:58;19.90;;;14.90;;
60919;SDS011;59039;52.108;19.942;2022-08-19T01:01:24;18.30;;;14.00;;
60919;SDS011;59039;52.108;19.942;2022-08-19T01:03:50;18.50;;;13.90;;
60919;SDS011;59039;52.108;19.942;2022-08-19T01:06:17;17.80;;;13.50;;
60919;SDS011;59039;52.108;19.942;2022-08-19T01:08:43;17.40;;;14.30;;
60919;SDS011;59039;52.108;19.942;2022-08-19T01:11:12;21.10;;;14.40;;
60919;SDS011;59039;52.108;19.942;2022-08-19T01:13:37;18.20;;;14.40;;
60919;SDS011;59039;52.108;19.942;2022-08-19T01:16:04;19.50;;;15.20;;
60919;SDS011;59039;52.108;19.942;2022-08-19T01:18:35;20.30;;;15.20;;
60919;SDS011;59039;52.108;19.942;2022-08-19T01:21:22;18.10;;;13.90;;
60919;SDS011;59039;52.108;19.942;2022-08-19T01:23:54;17.90;;;14.60;;
60919;SDS011;59039;52.108;19.942;2022-08-19T01:26:20;18.70;;;14.10;;
60919;SDS011;59039;52.108;19.942;2022-08-19T01:28:49;18.20;;;14.10;;
60919;SDS011;59039;52.108;19.942;2022-08-19T01:31:22;20.50;;;15.10;;
60919;SDS011;59039;52.108;19.942;2022-08-19T01:33:49;20.60;;;15.00;;
60919;SDS011;59039;52.108;19.942;2022-08-19T01:36:30;18.90;;;14.70;;
60919;SDS011;59039;52.108;19.942;2022-08-19T01:39:04;19.30;;;15.20;;
60919;SDS011;59039;52.108;19.942;2022-08-19T01:41:33;20.50;;;15.40;;
60919;SDS011;59039;52.108;19.942;2022-08-19T01:43:59;19.30;;;14.70;;
60919;SDS011;59039;52.108;19.942;2022-08-19T01:46:24;20.30;;;15.50;;
60919;SDS011;59039;52.108;19.942;2022-08-19T01:48:50;20.50;;;15.50;;
60919;SDS011;59039;52.108;19.942;2022-08-19T01:51:17;24.10;;;16.20;;
60919;SDS011;59039;52.108;19.942;2022-08-19T01:53:45;19.10;;;14.80;;
60919;SDS011;59039;52.108;19.942;2022-08-19T01:56:12;21.40;;;14.70;;
60919;SDS011;59039;52.108;19.942;2022-08-19T01:58:44;17.60;;;14.90;;
60919;SDS011;59039;52.108;19.942;2022-08-19T02:01:14;21.30;;;14.80;;
60919;SDS011;59039;52.108;19.942;2022-08-19T02:03:39;21.00;;;16.40;;
60919;SDS011;59039;52.108;19.942;2022-08-19T02:06:05;18.50;;;15.00;;
60919;SDS011;59039;52.108;19.942;2022-08-19T02:08:31;20.50;;;15.40;;
60919;SDS011;59039;52.108;19.942;2022-08-19T02:10:58;20.90;;;15.80;;
60919;SDS011;59039;52.108;19.942;2022-08-19T02:13:24;19.50;;;14.00;;
60919;SDS011;59039;52.108;19.942;2022-08-19T02:15:50;20.70;;;16.50;;
60919;SDS011;59039;52.108;19.942;2022-08-19T02:18:16;22.10;;;14.60;;
60919;SDS011;59039;52.108;19.942;2022-08-19T02:20:42;18.90;;;15.00;;
60919;SDS011;59039;52.108;19.942;2022-08-19T02:23:09;20.20;;;15.60;;
60919;SDS011;59039;52.108;19.942;2022-08-19T02:25:36;21.80;;;14.80;;
60919;SDS011;59039;52.108;19.942;2022-08-19T02:28:01;20.90;;;14.90;;
60919;SDS011;59039;52.108;19.942;2022-08-19T02:30:27;19.10;;;15.90;;
60919;SDS011;59039;52.108;19.942;2022-08-19T02:33:00;19.70;;;14.50;;
60919;SDS011;59039;52.108;19.942;2022-08-19T02:35:25;18.10;;;14.30;;
60919;SDS011;59039;52.108;19.942;2022-08-19T02:37:51;19.50;;;14.70;;
60919;SDS011;59039;52.108;19.942;2022-08-19T02:40:16;20.00;;;15.90;;
60919;SDS011;59039;52.108;19.942;2022-08-19T02:42:42;19.00;;;14.80;;
60919;SDS011;59039;52.108;19.942;2022-08-19T02:45:07;19.30;;;14.70;;
60919;SDS011;59039;52.108;19.942;2022-08-19T02:47:33;23.00;;;15.70;;
60919;SDS011;59039;52.108;19.942;2022-08-19T02:50:00;23.30;;;15.80;;
60919;SDS011;59039;52.108;19.942;2022-08-19T02:52:26;23.30;;;15.50;;
60919;SDS011;59039;52.108;19.942;2022-08-19T02:54:52;22.80;;;16.20;;
60919;SDS011;59039;52.108;19.942;2022-08-19T02:57:17;18.50;;;14.90;;
60919;SDS011;59039;52.108;19.942;2022-08-19T02:59:43;22.10;;;16.40;;
60919;SDS011;59039;52.108;19.942;2022-08-19T03:02:08;19.50;;;14.90;;
60919;SDS011;59039;52.108;19.942;2022-08-19T03:04:34;21.90;;;15.20;;
60919;SDS011;59039;52.108;19.942;2022-08-19T03:06:59;19.50;;;15.00;;
60919;SDS011;59039;52.108;19.942;2022-08-19T03:09:25;21.70;;;15.40;;
60919;SDS011;59039;52.108;19.942;2022-08-19T03:11:50;22.60;;;16.20;;
60919;SDS011;59039;52.108;19.942;2022-08-19T03:14:15;20.40;;;15.50;;
60919;SDS011;59039;52.108;19.942;2022-08-19T03:16:43;20.80;;;15.80;;
60919;SDS011;59039;52.108;19.942;2022-08-19T03:19:15;23.80;;;16.20;;
60919;SDS011;59039;52.108;19.942;2022-08-19T03:21:42;20.10;;;15.40;;
60919;SDS011;59039;52.108;19.942;2022-08-19T03:24:08;19.40;;;15.10;;
60919;SDS011;59039;52.108;19.942;2022-08-19T03:26:55;17.90;;;14.80;;
60919;SDS011;59039;52.108;19.942;2022-08-19T03:29:22;19.90;;;15.70;;
60919;SDS011;59039;52.108;19.942;2022-08-19T03:31:48;22.70;;;16.80;;
60919;SDS011;59039;52.108;19.942;2022-08-19T03:34:15;21.80;;;15.80;;
60919;SDS011;59039;52.108;19.942;2022-08-19T03:36:43;21.30;;;15.70;;
60919;SDS011;59039;52.108;19.942;2022-08-19T03:39:10;23.10;;;16.40;;
60919;SDS011;59039;52.108;19.942;2022-08-19T03:41:39;20.80;;;15.30;;
60919;SDS011;59039;52.108;19.942;2022-08-19T03:44:08;18.70;;;15.30;;
60919;SDS011;59039;52.108;19.942;2022-08-19T03:49:10;19.20;;;15.90;;
60919;SDS011;59039;52.108;19.942;2022-08-19T03:51:37;21.80;;;16.20;;
60919;SDS011;59039;52.108;19.942;2022-08-19T03:54:05;22.80;;;16.00;;
60919;SDS011;59039;52.108;19.942;2022-08-19T03:56:36;21.20;;;16.20;;
60919;SDS011;59039;52.108;19.942;2022-08-19T03:59:03;21.20;;;16.30;;
60919;SDS011;59039;52.108;19.942;2022-08-19T04:01:30;20.40;;;15.70;;
60919;SDS011;59039;52.108;19.942;2022-08-19T04:03:56;20.80;;;16.10;;
60919;SDS011;59039;52.108;19.942;2022-08-19T04:06:24;21.80;;;15.90;;
60919;SDS011;59039;52.108;19.942;2022-08-19T04:11:33;22.60;;;16.70;;
60919;SDS011;59039;52.108;19.942;2022-08-19T04:14:08;20.40;;;15.90;;
60919;SDS011;59039;52.108;19.942;2022-08-19T04:16:35;19.40;;;15.40;;
60919;SDS011;59039;52.108;19.942;2022-08-19T04:19:02;19.40;;;16.20;;
60919;SDS011;59039;52.108;19.942;2022-08-19T04:21:29;22.00;;;16.40;;
60919;SDS011;59039;52.108;19.942;2022-08-19T04:23:56;20.50;;;16.20;;
60919;SDS011;59039;52.108;19.942;2022-08-19T04:26:25;22.90;;;17.00;;
60919;SDS011;59039;52.108;19.942;2022-08-19T04:28:53;21.40;;;16.30;;
60919;SDS011;59039;52.108;19.942;2022-08-19T04:31:21;19.40;;;15.60;;
60919;SDS011;59039;52.108;19.942;2022-08-19T04:33:49;19.00;;;15.90;;
60919;SDS011;59039;52.108;19.942;2022-08-19T04:36:23;22.70;;;16.20;;
60919;SDS011;59039;52.108;19.942;2022-08-19T04:38:55;20.70;;;15.70;;
60919;SDS011;59039;52.108;19.942;2022-08-19T04:41:43;18.60;;;14.30;;
60919;SDS011;59039;52.108;19.942;2022-08-19T04:44:08;17.60;;;14.60;;
60919;SDS011;59039;52.108;19.942;2022-08-19T04:46:35;22.50;;;17.30;;
60919;SDS011;59039;52.108;19.942;2022-08-19T04:49:02;24.70;;;16.30;;
60919;SDS011;59039;52.108;19.942;2022-08-19T04:51:28;20.30;;;15.80;;
60919;SDS011;59039;52.108;19.942;2022-08-19T04:53:54;20.80;;;16.00;;
60919;SDS011;59039;52.108;19.942;2022-08-19T04:56:28;20.60;;;16.20;;
60919;SDS011;59039;52.108;19.942;2022-08-19T04:58:55;21.40;;;16.40;;
60919;SDS011;59039;52.108;19.942;2022-08-19T05:01:26;21.50;;;15.70;;
60919;SDS011;59039;52.108;19.942;2022-08-19T05:03:53;22.60;;;15.70;;
60919;SDS011;59039;52.108;19.942;2022-08-19T05:06:22;19.90;;;15.80;;
60919;SDS011;59039;52.108;19.942;2022-08-19T05:08:48;21.10;;;16.90;;
60919;SDS011;59039;52.108;19.942;2022-08-19T05:11:18;22.70;;;15.30;;
60919;SDS011;59039;52.108;19.942;2022-08-19T05:13:49;18.50;;;15.80;;
60919;SDS011;59039;52.108;19.942;2022-08-19T05:16:16;17.80;;;14.40;;
60919;SDS011;59039;52.108;19.942;2022-08-19T05:18:43;20.50;;;14.90;;
60919;SDS011;59039;52.108;19.942;2022-08-19T05:21:10;20.20;;;15.40;;
60919;SDS011;59039;52.108;19.942;2022-08-19T05:23:37;21.40;;;16.10;;
60919;SDS011;59039;52.108;19.942;2022-08-19T05:26:02;23.60;;;16.00;;
60919;SDS011;59039;52.108;19.942;2022-08-19T05:28:28;20.10;;;15.40;;
60919;SDS011;59039;52.108;19.942;2022-08-19T05:30:54;22.30;;;16.00;;
60919;SDS011;59039;52.108;19.942;2022-08-19T05:33:19;22.00;;;16.00;;
60919;SDS011;59039;52.108;19.942;2022-08-19T05:35:45;19.90;;;15.40;;
60919;SDS011;59039;52.108;19.942;2022-08-19T05:38:10;20.70;;;14.80;;
60919;SDS011;59039;52.108;19.942;2022-08-19T05:40:37;20.90;;;15.80;;
60919;SDS011;59039;52.108;19.942;2022-08-19T05:43:07;20.30;;;16.40;;
60919;SDS011;59039;52.108;19.942;2022-08-19T05:45:37;22.40;;;15.60;;
60919;SDS011;59039;52.108;19.942;2022-08-19T05:48:07;20.80;;;16.00;;
60919;SDS011;59039;52.108;19.942;2022-08-19T05:50:35;21.00;;;15.20;;
60919;SDS011;59039;52.108;19.942;2022-08-19T05:53:00;21.90;;;14.60;;
60919;SDS011;59039;52.108;19.942;2022-08-19T05:55:26;22.20;;;14.90;;
60919;SDS011;59039;52.108;19.942;2022-08-19T05:57:51;22.20;;;15.30;;
60919;SDS011;59039;52.108;19.942;2022-08-19T06:00:16;19.10;;;15.00;;
60919;SDS011;59039;52.108;19.942;2022-08-19T06:02:42;19.00;;;14.70;;
60919;SDS011;59039;52.108;19.942;2022-08-19T06:05:07;18.10;;;15.30;;
60919;SDS011;59039;52.108;19.942;2022-08-19T06:07:33;18.50;;;15.00;;
60919;SDS011;59039;52.108;19.942;2022-08-19T06:09:58;18.80;;;14.40;;
60919;SDS011;59039;52.108;19.942;2022-08-19T06:12:23;20.20;;;14.50;;
60919;SDS011;59039;52.108;19.942;2022-08-19T06:14:49;23.40;;;14.20;;
60919;SDS011;59039;52.108;19.942;2022-08-19T06:17:35;19.70;;;15.20;;
60919;SDS011;59039;52.108;19.942;2022-08-19T06:20:00;20.30;;;15.30;;
60919;SDS011;59039;52.108;19.942;2022-08-19T06:22:26;16.10;;;14.20;;
60919;SDS011;59039;52.108;19.942;2022-08-19T06:24:52;17.90;;;14.30;;
60919;SDS011;59039;52.108;19.942;2022-08-19T06:27:17;19.20;;;14.20;;
60919;SDS011;59039;52.108;19.942;2022-08-19T06:29:51;17.40;;;13.80;;
60919;SDS011;59039;52.108;19.942;2022-08-19T06:32:16;15.40;;;13.50;;
60919;SDS011;59039;52.108;19.942;2022-08-19T06:34:43;18.50;;;14.60;;
60919;SDS011;59039;52.108;19.942;2022-08-19T06:37:08;18.80;;;13.60;;
60919;SDS011;59039;52.108;19.942;2022-08-19T06:39:35;17.90;;;13.20;;
60919;SDS011;59039;52.108;19.942;2022-08-19T06:42:03;16.20;;;12.90;;
60919;SDS011;59039;52.108;19.942;2022-08-19T06:44:31;17.10;;;13.00;;
60919;SDS011;59039;52.108;19.942;2022-08-19T06:46:58;16.60;;;13.40;;
60919;SDS011;59039;52.108;19.942;2022-08-19T06:49:24;22.20;;;13.80;;
60919;SDS011;59039;52.108;19.942;2022-08-19T06:51:49;16.80;;;13.30;;
60919;SDS011;59039;52.108;19.942;2022-08-19T06:54:16;15.60;;;12.50;;
60919;SDS011;59039;52.108;19.942;2022-08-19T06:56:42;14.20;;;12.40;;
60919;SDS011;59039;52.108;19.942;2022-08-19T06:59:08;15.40;;;12.50;;
60919;SDS011;59039;52.108;19.942;2022-08-19T07:01:41;19.70;;;13.20;;
60919;SDS011;59039;52.108;19.942;2022-08-19T07:04:15;17.80;;;13.10;;
60919;SDS011;59039;52.108;19.942;2022-08-19T07:06:42;16.50;;;13.20;;
60919;SDS011;59039;52.108;19.942;2022-08-19T07:09:09;15.50;;;12.30;;
60919;SDS011;59039;52.108;19.942;2022-08-19T07:11:43;19.20;;;12.40;;
60919;SDS011;59039;52.108;19.942;2022-08-19T07:14:13;14.90;;;12.40;;
60919;SDS011;59039;52.108;19.942;2022-08-19T07:16:39;16.30;;;13.30;;
60919;SDS011;59039;52.108;19.942;2022-08-19T07:19:04;18.60;;;12.50;;
60919;SDS011;59039;52.108;19.942;2022-08-19T07:21:30;17.10;;;12.90;;
60919;SDS011;59039;52.108;19.942;2022-08-19T07:23:55;16.80;;;12.80;;
60919;SDS011;59039;52.108;19.942;2022-08-19T07:26:24;16.20;;;12.70;;
60919;SDS011;59039;52.108;19.942;2022-08-19T07:28:55;17.20;;;12.80;;
60919;SDS011;59039;52.108;19.942;2022-08-19T07:31:30;16.30;;;12.70;;
60919;SDS011;59039;52.108;19.942;2022-08-19T07:34:08;16.80;;;12.90;;
60919;SDS011;59039;52.108;19.942;2022-08-19T07:36:36;15.40;;;13.00;;
60919;SDS011;59039;52.108;19.942;2022-08-19T07:39:04;17.30;;;12.40;;
60919;SDS011;59039;52.108;19.942;2022-08-19T07:41:32;15.50;;;13.00;;
60919;SDS011;59039;52.108;19.942;2022-08-19T07:43:59;16.60;;;13.00;;
60919;SDS011;59039;52.108;19.942;2022-08-19T07:46:24;16.70;;;12.60;;
60919;SDS011;59039;52.108;19.942;2022-08-19T07:48:50;17.50;;;12.60;;
60919;SDS011;59039;52.108;19.942;2022-08-19T07:51:18;17.90;;;12.40;;
60919;SDS011;59039;52.108;19.942;2022-08-19T07:53:45;17.20;;;12.60;;
60919;SDS011;59039;52.108;19.942;2022-08-19T07:56:14;18.10;;;12.70;;
60919;SDS011;59039;52.108;19.942;2022-08-19T07:58:40;16.10;;;11.40;;
60919;SDS011;59039;52.108;19.942;2022-08-19T08:01:09;13.80;;;11.90;;
60919;SDS011;59039;52.108;19.942;2022-08-19T08:03:37;16.80;;;11.30;;
60919;SDS011;59039;52.108;19.942;2022-08-19T08:06:03;13.90;;;11.10;;
60919;SDS011;59039;52.108;19.942;2022-08-19T08:08:30;15.10;;;11.60;;
60919;SDS011;59039;52.108;19.942;2022-08-19T08:10:56;15.70;;;11.20;;
60919;SDS011;59039;52.108;19.942;2022-08-19T08:13:21;15.10;;;11.30;;
60919;SDS011;59039;52.108;19.942;2022-08-19T08:15:46;14.50;;;11.00;;
60919;SDS011;59039;52.108;19.942;2022-08-19T08:18:11;21.10;;;12.40;;
60919;SDS011;59039;52.108;19.942;2022-08-19T08:20:37;15.10;;;11.80;;
60919;SDS011;59039;52.108;19.942;2022-08-19T08:23:03;13.20;;;11.50;;
60919;SDS011;59039;52.108;19.942;2022-08-19T08:25:31;15.60;;;11.50;;
60919;SDS011;59039;52.108;19.942;2022-08-19T08:27:57;16.20;;;12.10;;
60919;SDS011;59039;52.108;19.942;2022-08-19T08:30:23;14.90;;;11.80;;
60919;SDS011;59039;52.108;19.942;2022-08-19T08:32:50;15.20;;;11.00;;
60919;SDS011;59039;52.108;19.942;2022-08-19T08:35:18;16.90;;;11.30;;
60919;SDS011;59039;52.108;19.942;2022-08-19T08:37:46;16.20;;;11.00;;
60919;SDS011;59039;52.108;19.942;2022-08-19T08:40:29;13.90;;;10.40;;
60919;SDS011;59039;52.108;19.942;2022-08-19T08:43:02;15.80;;;10.70;;
60919;SDS011;59039;52.108;19.942;2022-08-19T08:45:38;16.10;;;11.20;;
60919;SDS011;59039;52.108;19.942;2022-08-19T08:51:50;13.50;;;10.60;;
60919;SDS011;59039;52.108;19.942;2022-08-19T08:54:18;14.50;;;10.30;;
60919;SDS011;59039;52.108;19.942;2022-08-19T08:56:45;15.20;;;11.10;;
60919;SDS011;59039;52.108;19.942;2022-08-19T08:59:21;16.90;;;10.80;;
60919;SDS011;59039;52.108;19.942;2022-08-19T09:01:53;14.40;;;11.00;;
60919;SDS011;59039;52.108;19.942;2022-08-19T09:04:18;15.20;;;11.40;;
60919;SDS011;59039;52.108;19.942;2022-08-19T09:06:47;14.20;;;10.60;;
60919;SDS011;59039;52.108;19.942;2022-08-19T09:09:26;14.70;;;11.60;;
60919;SDS011;59039;52.108;19.942;2022-08-19T09:14:57;13.70;;;11.10;;
60919;SDS011;59039;52.108;19.942;2022-08-19T09:17:28;19.90;;;11.50;;
60919;SDS011;59039;52.108;19.942;2022-08-19T09:20:00;16.10;;;11.30;;
60919;SDS011;59039;52.108;19.942;2022-08-19T09:22:28;14.50;;;11.80;;
60919;SDS011;59039;52.108;19.942;2022-08-19T09:24:54;13.60;;;11.00;;
60919;SDS011;59039;52.108;19.942;2022-08-19T09:27:20;14.90;;;11.50;;
60919;SDS011;59039;52.108;19.942;2022-08-19T09:29:47;14.10;;;10.50;;
60919;SDS011;59039;52.108;19.942;2022-08-19T09:32:12;15.30;;;12.20;;
60919;SDS011;59039;52.108;19.942;2022-08-19T09:34:37;18.20;;;11.70;;
60919;SDS011;59039;52.108;19.942;2022-08-19T09:37:03;15.90;;;11.60;;
60919;SDS011;59039;52.108;19.942;2022-08-19T09:39:28;16.70;;;12.80;;
60919;SDS011;59039;52.108;19.942;2022-08-19T09:41:53;14.70;;;11.10;;
60919;SDS011;59039;52.108;19.942;2022-08-19T09:44:22;16.10;;;11.40;;
60919;SDS011;59039;52.108;19.942;2022-08-19T09:46:48;16.20;;;11.40;;
60919;SDS011;59039;52.108;19.942;2022-08-19T09:49:14;17.10;;;11.80;;
60919;SDS011;59039;52.108;19.942;2022-08-19T09:51:40;19.10;;;12.00;;
60919;SDS011;59039;52.108;19.942;2022-08-19T09:54:06;15.60;;;11.80;;
60919;SDS011;59039;52.108;19.942;2022-08-19T09:56:31;14.80;;;12.10;;
60919;SDS011;59039;52.108;19.942;2022-08-19T09:58:58;14.60;;;11.40;;
60919;SDS011;59039;52.108;19.942;2022-08-19T10:01:25;13.90;;;11.10;;
60919;SDS011;59039;52.108;19.942;2022-08-19T10:03:55;17.30;;;11.70;;
60919;SDS011;59039;52.108;19.942;2022-08-19T10:06:22;13.30;;;11.30;;
60919;SDS011;59039;52.108;19.942;2022-08-19T10:08:50;15.50;;;11.00;;
60919;SDS011;59039;52.108;19.942;2022-08-19T10:11:15;13.80;;;10.00;;
60919;SDS011;59039;52.108;19.942;2022-08-19T10:13:41;12.80;;;10.50;;
60919;SDS011;59039;52.108;19.942;2022-08-19T10:16:08;15.10;;;11.00;;
60919;SDS011;59039;52.108;19.942;2022-08-19T10:18:37;14.00;;;10.60;;
60919;SDS011;59039;52.108;19.942;2022-08-19T10:21:07;10.90;;;9.70;;
60919;SDS011;59039;52.108;19.942;2022-08-19T10:23:38;15.70;;;11.40;;
60919;SDS011;59039;52.108;19.942;2022-08-19T10:26:28;16.20;;;11.60;;
60919;SDS011;59039;52.108;19.942;2022-08-19T10:28:54;16.30;;;10.90;;
60919;SDS011;59039;52.108;19.942;2022-08-19T10:31:41;14.10;;;11.20;;
60919;SDS011;59039;52.108;19.942;2022-08-19T10:34:05;13.90;;;11.10;;
60919;SDS011;59039;52.108;19.942;2022-08-19T10:36:32;16.00;;;10.50;;
60919;SDS011;59039;52.108;19.942;2022-08-19T10:39:00;16.10;;;10.80;;
60919;SDS011;59039;52.108;19.942;2022-08-19T10:41:29;14.80;;;10.80;;
60919;SDS011;59039;52.108;19.942;2022-08-19T10:43:59;13.70;;;10.90;;
60919;SDS011;59039;52.108;19.942;2022-08-19T10:46:26;13.90;;;11.10;;
60919;SDS011;59039;52.108;19.942;2022-08-19T10:48:53;13.90;;;10.40;;
60919;SDS011;59039;52.108;19.942;2022-08-19T10:51:19;14.00;;;10.50;;
60919;SDS011;59039;52.108;19.942;2022-08-19T10:53:45;13.90;;;11.00;;
60919;SDS011;59039;52.108;19.942;2022-08-19T10:56:11;18.20;;;11.30;;
60919;SDS011;59039;52.108;19.942;2022-08-19T10:58:36;14.30;;;10.50;;
60919;SDS011;59039;52.108;19.942;2022-08-19T11:01:01;14.20;;;11.20;;
60919;SDS011;59039;52.108;19.942;2022-08-19T11:03:26;14.80;;;11.90;;
60919;SDS011;59039;52.108;19.942;2022-08-19T11:06:08;16.10;;;11.30;;
60919;SDS011;59039;52.108;19.942;2022-08-19T11:08:34;15.30;;;11.20;;
60919;SDS011;59039;52.108;19.942;2022-08-19T11:11:01;14.30;;;11.40;;
60919;SDS011;59039;52.108;19.942;2022-08-19T11:13:28;15.30;;;10.90;;
60919;SDS011;59039;52.108;19.942;2022-08-19T11:15:58;16.10;;;11.10;;
60919;SDS011;59039;52.108;19.942;2022-08-19T11:18:25;16.00;;;11.40;;
60919;SDS011;59039;52.108;19.942;2022-08-19T11:20:51;12.90;;;11.50;;
60919;SDS011;59039;52.108;19.942;2022-08-19T11:23:16;14.40;;;11.40;;
60919;SDS011;59039;52.108;19.942;2022-08-19T11:25:41;14.30;;;10.80;;
60919;SDS011;59039;52.108;19.942;2022-08-19T11:28:06;15.70;;;10.80;;
60919;SDS011;59039;52.108;19.942;2022-08-19T11:30:32;15.70;;;10.80;;
60919;SDS011;59039;52.108;19.942;2022-08-19T11:32:57;17.30;;;11.10;;
60919;SDS011;59039;52.108;19.942;2022-08-19T11:35:25;16.80;;;11.40;;
60919;SDS011;59039;52.108;19.942;2022-08-19T11:37:50;19.60;;;11.00;;
60919;SDS011;59039;52.108;19.942;2022-08-19T11:40:15;13.50;;;10.60;;
60919;SDS011;59039;52.108;19.942;2022-08-19T11:42:41;18.70;;;11.10;;
60919;SDS011;59039;52.108;19.942;2022-08-19T11:45:06;14.40;;;10.40;;
60919;SDS011;59039;52.108;19.942;2022-08-19T11:47:32;17.50;;;10.20;;
60919;SDS011;59039;52.108;19.942;2022-08-19T11:49:57;13.50;;;10.70;;
60919;SDS011;59039;52.108;19.942;2022-08-19T11:52:22;12.80;;;10.60;;
60919;SDS011;59039;52.108;19.942;2022-08-19T11:54:47;16.50;;;10.50;;
60919;SDS011;59039;52.108;19.942;2022-08-19T11:57:13;16.30;;;10.20;;
60919;SDS011;59039;52.108;19.942;2022-08-19T11:59:38;14.60;;;11.20;;
60919;SDS011;59039;52.108;19.942;2022-08-19T12:02:03;14.40;;;11.00;;
60919;SDS011;59039;52.108;19.942;2022-08-19T12:04:28;14.00;;;10.60;;
60919;SDS011;59039;52.108;19.942;2022-08-19T12:06:57;18.10;;;11.30;;
60919;SDS011;59039;52.108;19.942;2022-08-19T12:09:22;14.50;;;11.40;;
60919;SDS011;59039;52.108;19.942;2022-08-19T12:11:48;18.70;;;11.60;;
60919;SDS011;59039;52.108;19.942;2022-08-19T12:14:13;13.00;;;11.00;;
60919;SDS011;59039;52.108;19.942;2022-08-19T12:16:43;15.40;;;12.20;;
60919;SDS011;59039;52.108;19.942;2022-08-19T12:19:17;12.10;;;10.80;;
60919;SDS011;59039;52.108;19.942;2022-08-19T12:29:26;19.20;;;11.90;;
60919;SDS011;59039;52.108;19.942;2022-08-19T12:31:52;18.90;;;13.00;;
60919;SDS011;59039;52.108;19.942;2022-08-19T12:34:17;16.70;;;12.40;;
60919;SDS011;59039;52.108;19.942;2022-08-19T12:36:43;15.30;;;11.60;;
60919;SDS011;59039;52.108;19.942;2022-08-19T12:39:08;19.30;;;12.60;;
60919;SDS011;59039;52.108;19.942;2022-08-19T12:41:33;16.40;;;12.30;;
60919;SDS011;59039;52.108;19.942;2022-08-19T12:43:58;17.60;;;12.30;;
60919;SDS011;59039;52.108;19.942;2022-08-19T12:46:24;14.50;;;12.40;;
60919;SDS011;59039;52.108;19.942;2022-08-19T12:48:49;17.70;;;11.90;;
60919;SDS011;59039;52.108;19.942;2022-08-19T12:51:15;16.00;;;12.40;;
60919;SDS011;59039;52.108;19.942;2022-08-19T12:53:42;14.00;;;11.40;;
60919;SDS011;59039;52.108;19.942;2022-08-19T12:56:09;18.70;;;13.00;;
60919;SDS011;59039;52.108;19.942;2022-08-19T12:58:35;15.50;;;12.40;;
60919;SDS011;59039;52.108;19.942;2022-08-19T13:01:10;18.30;;;12.20;;
60919;SDS011;59039;52.108;19.942;2022-08-19T13:03:37;15.20;;;11.90;;
60919;SDS011;59039;52.108;19.942;2022-08-19T13:06:03;19.40;;;12.20;;
60919;SDS011;59039;52.108;19.942;2022-08-19T13:08:28;14.70;;;11.80;;
60919;SDS011;59039;52.108;19.942;2022-08-19T13:10:53;13.00;;;11.70;;
60919;SDS011;59039;52.108;19.942;2022-08-19T13:13:26;15.60;;;11.50;;
60919;SDS011;59039;52.108;19.942;2022-08-19T13:15:52;14.70;;;11.60;;
60919;SDS011;59039;52.108;19.942;2022-08-19T13:18:17;18.30;;;11.30;;
60919;SDS011;59039;52.108;19.942;2022-08-19T13:20:42;15.80;;;11.90;;
60919;SDS011;59039;52.108;19.942;2022-08-19T13:23:08;13.80;;;11.60;;
60919;SDS011;59039;52.108;19.942;2022-08-19T13:25:35;15.20;;;11.90;;
60919;SDS011;59039;52.108;19.942;2022-08-19T13:28:00;16.90;;;12.00;;
60919;SDS011;59039;52.108;19.942;2022-08-19T13:30:26;17.80;;;12.20;;
60919;SDS011;59039;52.108;19.942;2022-08-19T13:32:51;15.40;;;11.90;;
60919;SDS011;59039;52.108;19.942;2022-08-19T13:35:17;16.40;;;12.30;;
60919;SDS011;59039;52.108;19.942;2022-08-19T13:37:43;16.20;;;11.00;;
60919;SDS011;59039;52.108;19.942;2022-08-19T13:42:42;15.80;;;11.10;;
60919;SDS011;59039;52.108;19.942;2022-08-19T13:45:09;14.30;;;11.40;;
60919;SDS011;59039;52.108;19.942;2022-08-19T13:47:35;14.80;;;11.60;;
60919;SDS011;59039;52.108;19.942;2022-08-19T13:50:06;14.80;;;12.00;;
60919;SDS011;59039;52.108;19.942;2022-08-19T13:54:57;16.60;;;11.00;;
60919;SDS011;59039;52.108;19.942;2022-08-19T13:57:25;13.70;;;11.20;;
60919;SDS011;59039;52.108;19.942;2022-08-19T13:59:50;14.70;;;11.60;;
60919;SDS011;59039;52.108;19.942;2022-08-19T14:02:15;13.80;;;11.30;;
60919;SDS011;59039;52.108;19.942;2022-08-19T14:04:41;14.50;;;11.80;;
60919;SDS011;59039;52.108;19.942;2022-08-19T14:07:06;18.20;;;10.90;;
60919;SDS011;59039;52.108;19.942;2022-08-19T14:09:31;15.40;;;11.40;;
60919;SDS011;59039;52.108;19.942;2022-08-19T14:11:56;14.60;;;11.50;;
60919;SDS011;59039;52.108;19.942;2022-08-19T14:14:22;15.30;;;11.40;;
60919;SDS011;59039;52.108;19.942;2022-08-19T14:16:48;14.80;;;11.60;;
60919;SDS011;59039;52.108;19.942;2022-08-19T14:19:14;13.60;;;11.40;;
60919;SDS011;59039;52.108;19.942;2022-08-19T14:21:39;15.70;;;11.10;;
60919;SDS011;59039;52.108;19.942;2022-08-19T14:24:04;16.50;;;11.40;;
60919;SDS011;59039;52.108;19.942;2022-08-19T14:26:38;14.20;;;11.30;;
60919;SDS011;59039;52.108;19.942;2022-08-19T14:29:04;16.70;;;11.30;;
60919;SDS011;59039;52.108;19.942;2022-08-19T14:31:29;13.30;;;10.50;;
60919;SDS011;59039;52.108;19.942;2022-08-19T14:33:54;13.50;;;11.00;;
60919;SDS011;59039;52.108;19.942;2022-08-19T14:36:20;14.80;;;10.90;;
60919;SDS011;59039;52.108;19.942;2022-08-19T14:38:45;27.20;;;10.70;;